Time;durP1;ratioP1;P1;durP2;ratioP2;P2;SDS_P1;SDS_P2;PMS_P1;PMS_P2;Temp;Humidity;BMP_temperature;BMP_pressure;BME280_temperature;BME280_humidity;BME280_pressure;Samples;Min_cycle;Max_cycle;Signal;HPM_P1;HPM_P2
2023/10/04 04:43:37;;;;;;;;;;;;;;;8.22;87.16;100635.84;110289;1276;22523;-51
2023/10/04 04:46:12;;;;;;;;;;;;;;;8.34;86.74;100634.98;110289;1265;22542;-51
2023/10/04 04:48:40;;;;;;;;;;;;;;;8.45;86.72;100635.68;109929;1262;22583;-45
2023/10/04 04:51:14;;;;;;;;;;;;;;;8.56;86.53;100638.77;110389;1273;23358;-50
2023/10/04 04:53:53;;;;;;;;;;;;;;;8.67;86.27;100643.45;110004;1263;22530;-44
2023/10/04 04:56:24;;;;;;;;;;;;;;;8.78;86.23;100642.56;109990;1266;22592;-50
2023/10/04 04:58:56;;;;;;;;;;;;;;;8.89;85.97;100642.70;110055;1266;22472;-51
2023/10/04 05:01:26;;;;;;;;;;;;;;;9.00;85.78;100644.39;110212;1267;23108;-51
2023/10/04 05:03:53;;;;;;;;;;;;;;;9.10;85.56;100642.78;110125;1266;22974;-50
2023/10/04 05:06:23;;;;;;;;;;;;;;;9.20;85.42;100639.91;110104;1269;22444;-47
2023/10/04 05:08:50;;;;;;;;;;;;;;;9.28;85.16;100641.05;110232;1270;22420;-53
2023/10/04 05:11:17;;;;;;;;;;;;;;;9.38;85.26;100640.63;110139;1266;22928;-52
2023/10/04 05:13:45;;;;;;;;;;;;;;;9.49;85.24;100646.48;110242;1258;22532;-53
2023/10/04 05:16:11;;;;;;;;;;;;;;;9.59;85.00;100647.46;110235;1263;22672;-53
2023/10/04 05:18:38;;;;;;;;;;;;;;;9.70;84.97;100651.05;110095;1267;22660;-46
2023/10/04 05:21:05;;;;;;;;;;;;;;;9.81;84.99;100651.68;110156;1270;23187;-48
2023/10/04 05:23:32;;;;;;;;;;;;;;;9.94;84.99;100653.70;110170;1266;22487;-53
2023/10/04 05:26:03;;;;;;;;;;;;;;;10.07;84.76;100652.59;110036;1258;22484;-47
2023/10/04 05:28:33;;;;;;;;;;;;;;;10.23;84.62;100652.02;109955;1270;22497;-53
2023/10/04 05:31:11;;;;;;;;;;;;;;;10.37;84.52;100656.31;109543;1270;23281;-52
2023/10/04 05:33:38;;;;;;;;;;;;;;;10.56;84.53;100654.70;109712;1269;22617;-48
2023/10/04 05:36:11;;;;;;;;;;;;;;;10.75;83.80;100656.19;109625;1268;23025;-51
2023/10/04 05:38:37;;;;;;;;;;;;;;;10.89;83.11;100657.30;109852;1269;23057;-48
2023/10/04 05:41:42;;;;;;;;;;;;;;;11.03;82.68;100654.91;109659;1266;22527;-50
2023/10/04 05:59:48;;;;;;;;;;;;;;;12.18;78.49;100659.48;109638;1276;22950;-51
2023/10/04 06:14:41;;;;;;;;;;;;;;;13.24;75.23;100657.10;110027;1269;22429;-48
2023/10/04 06:17:42;;;;;;;;;;;;;;;13.46;75.01;100654.00;109971;1270;23164;-48
2023/10/04 06:21:01;;;;;;;;;;;;;;;13.78;74.15;100653.26;109208;1270;22980;-51
2023/10/04 06:28:04;;;;;;;;;;;;;;;14.53;70.85;100654.72;109571;1269;22496;-48
2023/10/04 06:38:12;;;;;;;;;;;;;;;15.55;64.08;100636.39;109909;1269;22502;-49
2023/10/04 06:41:10;;;;;;;;;;;;;;;15.79;62.88;100636.58;109917;1270;22607;-51
2023/10/04 06:44:01;;;;;;;;;;;;;;;16.03;61.65;100638.65;109826;1270;23064;-48
2023/10/04 06:46:30;;;;;;;;;;;;;;;16.22;60.79;100637.96;109815;1275;22572;-47
2023/10/04 06:49:00;;;;;;;;;;;;;;;16.39;60.28;100635.55;110071;1276;22495;-50
2023/10/04 06:51:27;;;;;;;;;;;;;;;16.56;58.80;100642.43;110081;1269;22505;-50
2023/10/04 06:53:55;;;;;;;;;;;;;;;16.71;57.10;100631.23;110019;1259;24214;-49
2023/10/04 06:56:22;;;;;;;;;;;;;;;16.86;56.61;100637.48;110198;1264;23557;-52
2023/10/04 06:58:50;;;;;;;;;;;;;;;16.99;55.74;100633.68;110174;1275;22470;-47
2023/10/04 07:01:17;;;;;;;;;;;;;;;17.11;54.67;100634.31;110027;1266;22934;-47
2023/10/04 07:03:44;;;;;;;;;;;;;;;17.20;54.13;100629.36;109827;1259;22471;-47
2023/10/04 07:06:11;;;;;;;;;;;;;;;17.29;54.21;100621.58;110045;1263;22434;-47
2023/10/04 07:08:39;;;;;;;;;;;;;;;17.44;53.74;100627.77;109986;1270;22573;-47
2023/10/04 07:11:06;;;;;;;;;;;;;;;17.56;52.38;100628.53;109819;1272;23397;-51
2023/10/04 07:13:39;;;;;;;;;;;;;;;17.66;52.34;100621.79;109579;1273;22808;-47
2023/10/04 07:16:17;;;;;;;;;;;;;;;17.76;52.40;100616.62;109855;1264;22567;-51
2023/10/04 07:18:48;;;;;;;;;;;;;;;17.91;51.45;100615.04;109682;1269;110229;-47
2023/10/04 07:21:16;;;;;;;;;;;;;;;17.98;51.00;100609.21;109795;1267;23018;-48
2023/10/04 07:23:43;;;;;;;;;;;;;;;18.03;50.98;100606.60;109812;1266;22987;-52
2023/10/04 07:26:12;;;;;;;;;;;;;;;18.10;50.94;100595.47;109756;1269;22525;-50
2023/10/04 07:28:41;;;;;;;;;;;;;;;18.18;50.39;100596.86;109636;1272;23460;-51
2023/10/04 07:31:08;;;;;;;;;;;;;;;18.24;49.93;100600.41;109587;1260;23342;-47
2023/10/04 07:33:35;;;;;;;;;;;;;;;18.28;49.87;100596.59;109678;1268;22504;-46
2023/10/04 07:36:02;;;;;;;;;;;;;;;18.33;49.94;100593.80;109835;1266;23116;-47
2023/10/04 07:38:29;;;;;;;;;;;;;;;18.40;49.72;100596.27;109757;1260;22531;-50
2023/10/04 07:40:55;;;;;;;;;;;;;;;18.48;49.50;100588.81;109864;1262;23112;-47
2023/10/04 07:43:23;;;;;;;;;;;;;;;18.55;48.71;100583.83;109904;1269;22490;-48
2023/10/04 07:45:57;;;;;;;;;;;;;;;18.62;48.44;100583.09;109749;1270;22423;-51
2023/10/04 07:48:25;;;;;;;;;;;;;;;18.69;48.30;100582.06;110105;1270;23244;-50
2023/10/04 07:51:03;;;;;;;;;;;;;;;18.75;47.89;100586.48;110098;1269;23215;-51
2023/10/04 07:53:30;;;;;;;;;;;;;;;18.81;48.00;100583.81;110021;1266;22449;-46
2023/10/04 07:55:57;;;;;;;;;;;;;;;18.93;47.69;100585.95;110064;1266;22430;-47
2023/10/04 07:58:24;;;;;;;;;;;;;;;19.06;47.17;100582.90;110071;1266;22438;-47
2023/10/04 08:00:51;;;;;;;;;;;;;;;19.17;46.42;100574.44;109843;1268;22469;-47
2023/10/04 08:03:19;;;;;;;;;;;;;;;19.24;45.99;100567.84;109683;1269;24895;-50
2023/10/04 08:05:46;;;;;;;;;;;;;;;19.31;45.64;100564.08;109634;1269;22810;-50
2023/10/04 08:08:15;;;;;;;;;;;;;;;19.37;45.76;100558.75;109862;1270;22502;-47
2023/10/04 08:10:49;;;;;;;;;;;;;;;19.44;45.28;100555.88;109449;1270;22527;-50
2023/10/04 08:13:48;;;;;;;;;;;;;;;19.51;44.95;100549.83;109657;1269;22475;-51
2023/10/04 08:16:15;;;;;;;;;;;;;;;19.58;44.90;100546.61;109875;1269;23264;-48
2023/10/04 08:18:43;;;;;;;;;;;;;;;19.64;44.61;100546.05;109918;1270;22433;-50
2023/10/04 08:21:10;;;;;;;;;;;;;;;19.71;44.44;100540.54;109828;1270;23466;-48
2023/10/04 08:23:36;;;;;;;;;;;;;;;19.77;44.59;100533.79;109893;1269;22558;-49
2023/10/04 08:26:11;;;;;;;;;;;;;;;19.85;44.61;100531.53;109886;1270;22436;-48
2023/10/04 08:28:41;;;;;;;;;;;;;;;19.97;44.21;100530.07;109855;1276;22892;-49
2023/10/04 08:31:09;;;;;;;;;;;;;;;20.03;44.12;100525.63;109724;1270;22528;-50
2023/10/04 08:33:36;;;;;;;;;;;;;;;20.09;44.23;100525.91;109791;1269;23220;-50
2023/10/04 08:36:08;;;;;;;;;;;;;;;20.15;44.24;100526.23;109797;1270;22625;-48
2023/10/04 08:38:36;;;;;;;;;;;;;;;20.18;44.53;100521.67;109903;1273;22485;-51
2023/10/04 08:41:05;;;;;;;;;;;;;;;20.26;44.55;100523.38;109955;1270;23143;-50
2023/10/04 08:43:32;;;;;;;;;;;;;;;20.30;44.56;100539.69;109953;1269;22477;-51
2023/10/04 08:45:59;;;;;;;;;;;;;;;20.33;44.75;100524.73;110083;1270;22439;-50
2023/10/04 08:48:29;;;;;;;;;;;;;;;20.41;44.73;100515.55;109945;1270;23181;-53
2023/10/04 08:51:13;;;;;;;;;;;;;;;20.49;44.40;100518.66;109889;1271;22649;-47
2023/10/04 08:53:45;;;;;;;;;;;;;;;20.53;44.33;100517.11;110038;1270;23419;-49
2023/10/04 08:56:18;;;;;;;;;;;;;;;20.57;44.62;100520.66;109889;1270;22904;-47
2023/10/04 08:58:45;;;;;;;;;;;;;;;20.65;44.58;100517.52;110060;1269;22552;-47
2023/10/04 09:01:13;;;;;;;;;;;;;;;20.72;44.30;100521.69;109823;1272;22636;-48
2023/10/04 09:03:41;;;;;;;;;;;;;;;20.71;44.50;100520.48;109803;1269;22426;-48
2023/10/04 09:06:14;;;;;;;;;;;;;;;20.71;44.52;100520.11;109916;1270;22549;-49
2023/10/04 09:08:41;;;;;;;;;;;;;;;20.74;44.47;100524.80;109861;1269;22983;-48
2023/10/04 09:11:10;;;;;;;;;;;;;;;20.76;44.93;100515.15;109952;1269;22486;-50
2023/10/04 09:13:44;;;;;;;;;;;;;;;20.81;44.43;100509.09;109668;1270;22597;-51
2023/10/04 09:16:17;;;;;;;;;;;;;;;20.83;44.76;100509.58;109935;1269;23130;-52
2023/10/04 09:18:44;;;;;;;;;;;;;;;20.85;44.69;100497.61;109991;1273;22444;-52
2023/10/04 09:21:15;;;;;;;;;;;;;;;20.87;44.64;100492.38;109886;1271;22511;-49
2023/10/04 09:23:43;;;;;;;;;;;;;;;20.95;44.72;100491.01;109883;1270;22425;-50
2023/10/04 09:26:14;;;;;;;;;;;;;;;21.06;44.65;100484.70;109985;1269;22893;-50
2023/10/04 09:28:41;;;;;;;;;;;;;;;21.16;44.48;100472.58;110026;1270;23039;-50
2023/10/04 09:31:09;;;;;;;;;;;;;;;21.23;44.28;100468.77;110018;1268;22488;-50
2023/10/04 09:33:36;;;;;;;;;;;;;;;21.30;44.00;100464.41;110011;1270;22496;-50
2023/10/04 09:36:04;;;;;;;;;;;;;;;21.34;43.87;100467.10;110042;1270;22616;-50
2023/10/04 09:38:35;;;;;;;;;;;;;;;21.33;43.86;100456.86;110052;1269;22500;-50
2023/10/04 09:41:02;;;;;;;;;;;;;;;21.30;43.85;100457.31;110062;1271;22447;-50
2023/10/04 09:43:36;;;;;;;;;;;;;;;21.29;43.82;100448.86;110158;1269;23084;-50
2023/10/04 09:46:10;;;;;;;;;;;;;;;21.27;44.11;100437.20;110087;1269;22958;-49
2023/10/04 09:48:38;;;;;;;;;;;;;;;21.34;44.14;100427.34;110080;1269;22506;-47
2023/10/04 09:51:05;;;;;;;;;;;;;;;21.42;43.74;100433.76;110053;1270;22441;-47
2023/10/04 09:53:33;;;;;;;;;;;;;;;21.49;43.84;100439.69;110012;1269;22466;-48
2023/10/04 09:56:01;;;;;;;;;;;;;;;21.60;43.90;100450.23;110046;1270;22502;-50
2023/10/04 09:58:30;;;;;;;;;;;;;;;21.76;43.68;100451.64;110064;1272;23200;-49
2023/10/04 10:01:07;;;;;;;;;;;;;;;21.97;43.51;100445.39;110127;1270;22638;-47
2023/10/04 10:03:37;;;;;;;;;;;;;;;22.23;42.71;100446.90;110055;1270;22534;-47
2023/10/04 10:06:11;;;;;;;;;;;;;;;22.42;42.63;100446.92;109775;1271;22475;-50
2023/10/04 10:08:39;;;;;;;;;;;;;;;22.60;42.20;100449.63;109839;1270;22514;-48
2023/10/04 10:11:06;;;;;;;;;;;;;;;22.75;41.88;100451.74;109723;1272;22479;-48
2023/10/04 10:13:33;;;;;;;;;;;;;;;22.94;41.58;100442.67;110021;1272;22442;-49
2023/10/04 10:16:00;;;;;;;;;;;;;;;23.25;41.17;100438.99;109758;1270;23249;-48
2023/10/04 10:18:27;;;;;;;;;;;;;;;23.65;40.62;100436.27;109641;1273;23829;-48
2023/10/04 10:20:57;;;;;;;;;;;;;;;24.02;39.80;100437.18;109786;1276;22526;-47
2023/10/04 10:23:24;;;;;;;;;;;;;;;24.31;39.10;100436.70;109897;1276;22938;-47
2023/10/04 10:26:10;;;;;;;;;;;;;;;24.57;38.64;100432.02;109758;1276;23046;-49
2023/10/04 10:28:37;;;;;;;;;;;;;;;24.82;38.00;100431.89;109859;1270;22448;-50
2023/10/04 10:31:07;;;;;;;;;;;;;;;24.93;37.88;100426.45;109704;1276;22492;-47
2023/10/04 10:33:34;;;;;;;;;;;;;;;25.00;37.37;100430.51;109808;1276;22460;-49
2023/10/04 10:36:02;;;;;;;;;;;;;;;25.08;37.30;100430.23;109983;1276;23355;-47
2023/10/04 10:38:43;;;;;;;;;;;;;;;25.17;37.38;100421.86;109967;1276;23339;-47
2023/10/04 10:41:31;;;;;;;;;;;;;;;25.32;36.92;100413.48;109998;1276;22492;-47
2023/10/04 10:44:20;;;;;;;;;;;;;;;25.57;36.29;100415.60;109912;1276;22487;-49
2023/10/04 10:46:54;;;;;;;;;;;;;;;25.75;35.70;100413.63;110036;1276;22458;-49
2023/10/04 10:49:41;;;;;;;;;;;;;;;25.82;35.68;100409.39;109898;1276;22614;-48
2023/10/04 10:52:49;;;;;;;;;;;;;;;25.89;35.39;100409.52;110032;1276;22471;-49
2023/10/04 10:55:27;;;;;;;;;;;;;;;25.96;35.22;100416.77;109849;1275;22492;-49
2023/10/04 10:57:55;;;;;;;;;;;;;;;26.02;34.91;100413.55;110027;1271;22468;-48
2023/10/04 11:00:23;;;;;;;;;;;;;;;26.08;35.04;100410.28;110070;1276;23412;-48
2023/10/04 11:02:53;;;;;;;;;;;;;;;26.17;34.57;100408.31;110040;1270;22555;-47
2023/10/04 11:05:22;;;;;;;;;;;;;;;26.17;34.78;100411.55;109996;1269;22542;-49
2023/10/04 11:07:49;;;;;;;;;;;;;;;26.12;34.93;100406.99;109987;1269;22481;-46
2023/10/04 11:10:16;;;;;;;;;;;;;;;26.06;34.96;100396.31;110012;1270;22511;-49
2023/10/04 11:12:44;;;;;;;;;;;;;;;25.84;35.01;100409.84;110053;1273;22438;-48
2023/10/04 11:15:11;;;;;;;;;;;;;;;25.54;35.18;100415.23;110030;1270;22499;-48
2023/10/04 11:17:38;;;;;;;;;;;;;;;25.22;35.82;100415.70;110152;1270;22464;-47
2023/10/04 11:20:09;;;;;;;;;;;;;;;24.92;36.61;100416.34;110083;1268;22956;-49
2023/10/04 11:22:37;;;;;;;;;;;;;;;24.69;37.20;100417.83;110172;1269;23286;-49
2023/10/04 11:25:08;;;;;;;;;;;;;;;24.55;37.30;100415.22;110061;1272;22445;-47
2023/10/04 11:27:40;;;;;;;;;;;;;;;24.46;36.87;100414.48;110005;1269;22884;-47
2023/10/04 11:30:10;;;;;;;;;;;;;;;24.26;37.38;100413.25;109982;1269;22566;-46
2023/10/04 11:32:40;;;;;;;;;;;;;;;24.13;37.79;100403.23;110047;1270;22451;-47
2023/10/04 11:35:11;;;;;;;;;;;;;;;24.06;38.27;100401.48;110078;1269;22465;-47
2023/10/04 11:37:40;;;;;;;;;;;;;;;24.06;38.00;100398.65;110026;1268;22455;-49
2023/10/04 11:40:12;;;;;;;;;;;;;;;24.08;38.10;100406.41;109654;1272;22527;-47
2023/10/04 11:42:39;;;;;;;;;;;;;;;24.11;37.95;100399.81;110116;1276;22452;-47
2023/10/04 11:45:19;;;;;;;;;;;;;;;24.09;38.15;100393.30;109923;1270;22448;-47
2023/10/04 11:48:01;;;;;;;;;;;;;;;24.09;38.12;100393.48;110078;1270;22441;-48
2023/10/04 11:50:42;;;;;;;;;;;;;;;24.08;37.89;100393.38;110204;1276;22529;-45
2023/10/04 11:53:11;;;;;;;;;;;;;;;24.07;37.68;100386.12;110253;1269;22502;-47
2023/10/04 11:55:38;;;;;;;;;;;;;;;24.06;37.47;100374.78;110117;1276;22444;-46
2023/10/04 11:58:05;;;;;;;;;;;;;;;24.08;37.55;100381.26;110092;1270;23351;-48
2023/10/04 12:00:32;;;;;;;;;;;;;;;24.11;37.33;100382.85;110090;1273;22833;-49
2023/10/04 12:02:59;;;;;;;;;;;;;;;24.14;37.06;100374.52;110082;1273;23190;-47
2023/10/04 12:05:26;;;;;;;;;;;;;;;24.14;36.89;100373.64;110082;1271;23620;-48
2023/10/04 12:07:58;;;;;;;;;;;;;;;24.12;36.88;100372.48;109893;1275;23064;-48
2023/10/04 12:10:25;;;;;;;;;;;;;;;24.09;37.08;100364.29;110041;1275;22427;-46
2023/10/04 12:12:54;;;;;;;;;;;;;;;24.08;37.16;100358.66;110089;1276;22405;-46
2023/10/04 12:15:21;;;;;;;;;;;;;;;24.10;37.30;100353.52;110167;1276;22452;-48
2023/10/04 12:17:49;;;;;;;;;;;;;;;24.18;37.31;100347.06;110204;1276;22464;-48
2023/10/04 12:20:20;;;;;;;;;;;;;;;24.25;37.07;100346.86;110213;1276;22480;-47
2023/10/04 12:22:48;;;;;;;;;;;;;;;24.27;36.97;100341.73;110225;1276;23836;-48
2023/10/04 12:25:15;;;;;;;;;;;;;;;24.28;36.94;100341.31;110206;1276;23051;-48
2023/10/04 12:27:43;;;;;;;;;;;;;;;24.28;36.48;100346.66;110149;1276;22534;-48
2023/10/04 12:30:11;;;;;;;;;;;;;;;24.24;36.74;100336.56;110168;1276;22959;-49
2023/10/04 12:32:37;;;;;;;;;;;;;;;24.26;36.68;100342.30;110191;1276;23080;-47
2023/10/04 12:35:06;;;;;;;;;;;;;;;24.27;36.50;100329.59;110193;1276;22429;-46
2023/10/04 12:37:34;;;;;;;;;;;;;;;24.29;36.51;100336.63;110237;1276;22499;-48
2023/10/04 12:40:01;;;;;;;;;;;;;;;24.30;36.49;100333.38;110139;1276;23191;-49
2023/10/04 12:42:29;;;;;;;;;;;;;;;24.29;36.69;100334.64;110263;1276;22434;-49
2023/10/04 12:44:58;;;;;;;;;;;;;;;24.31;36.73;100335.80;109956;1276;22472;-48
2023/10/04 12:47:25;;;;;;;;;;;;;;;24.36;36.48;100346.27;109990;1271;22430;-48
2023/10/04 12:49:53;;;;;;;;;;;;;;;24.47;36.15;100349.02;110256;1276;22434;-48
2023/10/04 12:52:24;;;;;;;;;;;;;;;24.65;35.91;100350.48;110255;1276;22477;-47
2023/10/04 12:54:51;;;;;;;;;;;;;;;24.75;35.64;100348.14;110286;1276;23548;-49
2023/10/04 12:57:18;;;;;;;;;;;;;;;24.75;35.48;100347.04;110307;1276;22467;-49
2023/10/04 12:59:45;;;;;;;;;;;;;;;24.80;35.37;100348.55;110344;1276;22542;-48
2023/10/04 13:02:12;;;;;;;;;;;;;;;24.95;35.18;100351.96;110317;1276;22447;-48
2023/10/04 13:04:39;;;;;;;;;;;;;;;24.98;34.89;100341.41;110383;1276;23239;-48
2023/10/04 13:07:07;;;;;;;;;;;;;;;24.93;34.95;100351.86;110395;1276;23218;-48
2023/10/04 13:09:33;;;;;;;;;;;;;;;24.87;35.14;100345.24;110440;1276;22490;-48
2023/10/04 13:12:21;;;;;;;;;;;;;;;24.82;35.34;100345.36;110377;1276;22434;-47
2023/10/04 13:14:48;;;;;;;;;;;;;;;24.81;35.38;100348.30;110294;1276;22494;-47
2023/10/04 13:17:16;;;;;;;;;;;;;;;24.78;35.40;100348.48;110279;1276;22436;-47
